createdAt,value
2023-10-12T00:02:22.742Z,11.23
2023-10-12T00:04:54.706Z,9.70
2023-10-12T00:07:35.444Z,9.65
2023-10-12T00:10:22.675Z,11.15
2023-10-12T00:13:00.648Z,9.93
2023-10-12T00:15:31.060Z,9.88
2023-10-12T00:18:04.886Z,10.18
2023-10-12T00:20:36.728Z,9.52
2023-10-12T00:23:12.588Z,9.52
2023-10-12T00:25:49.141Z,8.05
2023-10-12T00:28:20.354Z,8.07
2023-10-12T00:30:50.898Z,8.48
2023-10-12T00:33:20.010Z,8.45
2023-10-12T00:35:51.364Z,7.68
2023-10-12T00:38:19.580Z,8.13
2023-10-12T00:40:56.623Z,8.45
2023-10-12T00:43:28.970Z,8.15
2023-10-12T00:45:56.976Z,7.28
2023-10-12T00:48:30.908Z,7.03
2023-10-12T00:51:00.636Z,6.28
2023-10-12T00:53:33.694Z,6.88
2023-10-12T00:56:03.806Z,5.60
2023-10-12T00:58:33.056Z,5.18
2023-10-12T01:01:05.802Z,5.68
2023-10-12T01:03:36.583Z,4.57
2023-10-12T01:06:22.080Z,5.20
2023-10-12T01:08:50.637Z,4.55
2023-10-12T01:11:22.265Z,4.72
2023-10-12T01:14:04.810Z,4.68
2023-10-12T01:16:47.209Z,5.07
2023-10-12T01:19:22.383Z,4.82
2023-10-12T01:21:52.811Z,4.53
2023-10-12T01:24:25.792Z,4.88
2023-10-12T01:26:54.576Z,5.05
2023-10-12T01:29:22.561Z,4.65
2023-10-12T01:31:55.904Z,4.38
2023-10-12T01:34:26.441Z,4.65
2023-10-12T01:36:59.202Z,5.05
2023-10-12T01:39:30.030Z,4.60
2023-10-12T01:41:58.326Z,4.32
2023-10-12T01:44:28.899Z,4.43
2023-10-12T01:46:57.884Z,4.50
2023-10-12T01:49:26.534Z,4.40
2023-10-12T01:51:58.763Z,4.20
2023-10-12T01:54:26.964Z,4.50
2023-10-12T01:56:57.118Z,4.03
2023-10-12T01:59:26.537Z,4.18
2023-10-12T02:02:07.086Z,4.95
2023-10-12T02:04:40.960Z,4.32
2023-10-12T02:07:11.828Z,3.78
2023-10-12T02:09:40.637Z,3.95
2023-10-12T02:12:14.079Z,4.32
2023-10-12T02:14:42.384Z,4.68
2023-10-12T02:17:11.214Z,4.88
2023-10-12T02:19:43.347Z,4.13
2023-10-12T02:22:21.443Z,4.05
2023-10-12T02:24:59.064Z,4.38
2023-10-12T02:27:27.492Z,4.78
2023-10-12T02:29:57.686Z,4.50
2023-10-12T02:32:26.622Z,3.92
2023-10-12T02:34:57.557Z,4.40
2023-10-12T02:37:29.342Z,4.93
2023-10-12T02:39:58.413Z,4.43
2023-10-12T02:42:41.598Z,4.15
2023-10-12T02:45:18.726Z,4.40
2023-10-12T02:47:49.906Z,4.07
2023-10-12T02:50:39.006Z,4.32
2023-10-12T02:53:13.383Z,4.03
2023-10-12T02:55:50.097Z,4.68
2023-10-12T02:58:24.939Z,4.00
2023-10-12T03:00:57.623Z,4.45
2023-10-12T03:03:29.424Z,4.35
2023-10-12T03:06:08.589Z,4.68
2023-10-12T03:09:01.422Z,4.00
2023-10-12T03:11:29.545Z,3.92
2023-10-12T03:14:01.423Z,4.50
2023-10-12T03:16:35.139Z,4.65
2023-10-12T03:19:18.720Z,4.38
2023-10-12T03:21:49.178Z,4.20
2023-10-12T03:24:22.220Z,3.95
2023-10-12T03:27:11.289Z,4.47
2023-10-12T03:29:44.420Z,4.22
2023-10-12T03:32:17.705Z,4.63
2023-10-12T03:34:55.433Z,4.50
2023-10-12T03:37:46.258Z,4.93
2023-10-12T03:40:33.330Z,4.57
2023-10-12T03:43:09.803Z,4.07
2023-10-12T03:45:40.803Z,4.45
2023-10-12T03:48:26.456Z,4.25
2023-10-12T03:51:12.764Z,4.38
2023-10-12T03:53:46.983Z,4.93
2023-10-12T03:56:17.765Z,5.05
2023-10-12T03:58:54.220Z,4.65
2023-10-12T04:01:26.016Z,4.70
2023-10-12T04:04:10.080Z,4.57
2023-10-12T04:07:16.685Z,4.75
2023-10-12T04:09:44.906Z,4.47
2023-10-12T04:12:20.334Z,4.65
2023-10-12T04:14:55.088Z,4.18
2023-10-12T04:17:40.860Z,4.80
2023-10-12T04:20:18.251Z,4.25
2023-10-12T04:23:03.938Z,3.90
2023-10-12T04:25:47.713Z,4.25
2023-10-12T04:28:25.008Z,3.88
2023-10-12T04:31:22.133Z,4.10
2023-10-12T04:34:06.417Z,4.22
2023-10-12T04:36:39.754Z,3.63
2023-10-12T04:39:16.813Z,3.92
2023-10-12T04:41:56.880Z,4.05
2023-10-12T04:44:41.192Z,3.38
2023-10-12T04:47:11.102Z,3.53
2023-10-12T04:49:54.510Z,4.00
2023-10-12T04:52:37.769Z,4.00
2023-10-12T04:55:21.034Z,3.28
2023-10-12T04:58:10.971Z,2.40
2023-10-12T05:01:03.133Z,1.40
2023-10-12T05:03:37.764Z,0.85
2023-10-12T05:06:10.067Z,0.80
2023-10-12T05:08:38.508Z,0.52
2023-10-12T05:11:09.937Z,0.80
2023-10-12T05:13:44.285Z,0.50
2023-10-12T05:16:16.260Z,0.90
2023-10-12T05:18:44.552Z,0.80
2023-10-12T05:21:12.615Z,0.80
2023-10-12T05:23:40.873Z,0.68
2023-10-12T05:26:11.677Z,0.90
2023-10-12T05:28:49.381Z,0.77
2023-10-12T05:31:22.426Z,0.82
2023-10-12T05:34:22.092Z,0.77
2023-10-12T05:36:50.386Z,0.80
2023-10-12T05:39:18.729Z,0.90
2023-10-12T05:41:47.633Z,1.10
2023-10-12T05:44:17.109Z,0.98
2023-10-12T05:46:53.543Z,0.73
2023-10-12T05:49:24.236Z,0.73
2023-10-12T05:51:52.524Z,1.00
2023-10-12T05:54:24.387Z,1.27
2023-10-12T05:56:54.024Z,1.05
2023-10-12T05:59:23.658Z,1.02
2023-10-12T06:01:53.074Z,1.00
2023-10-12T06:04:22.732Z,0.80
2023-10-12T06:06:52.629Z,0.85
2023-10-12T06:09:24.556Z,0.90
2023-10-12T06:11:55.039Z,1.00
2023-10-12T06:14:23.650Z,0.90
2023-10-12T06:16:56.893Z,1.23
2023-10-12T06:19:27.657Z,0.88
2023-10-12T06:22:00.305Z,0.98
2023-10-12T06:24:36.486Z,1.10
2023-10-12T06:27:23.791Z,0.80
2023-10-12T06:29:54.012Z,1.30
2023-10-12T06:32:32.986Z,1.50
2023-10-12T06:35:14.553Z,1.08
2023-10-12T06:37:51.062Z,1.35
2023-10-12T06:40:38.770Z,1.40
2023-10-12T06:43:23.304Z,1.55
2023-10-12T06:45:52.901Z,1.65
2023-10-12T06:48:45.093Z,1.65
2023-10-12T06:51:14.788Z,1.85
2023-10-12T06:53:46.235Z,1.65
2023-10-12T06:56:25.894Z,1.50
2023-10-12T06:59:15.008Z,1.38
2023-10-12T07:01:54.820Z,1.20
2023-10-12T07:04:31.150Z,1.73
2023-10-12T07:07:01.144Z,1.30
2023-10-12T07:09:40.823Z,1.30
2023-10-12T07:12:11.409Z,1.48
2023-10-12T07:14:44.365Z,1.40
2023-10-12T07:17:12.525Z,1.30
2023-10-12T07:19:47.647Z,1.10
2023-10-12T07:22:17.295Z,0.90
2023-10-12T07:24:47.755Z,1.20
2023-10-12T07:27:19.696Z,1.20
2023-10-12T07:29:49.574Z,0.90
2023-10-12T07:32:25.825Z,0.90
2023-10-12T07:34:55.922Z,1.00
2023-10-12T07:37:23.918Z,0.75
2023-10-12T07:39:54.883Z,0.70
2023-10-12T07:42:28.563Z,0.63
2023-10-12T07:45:00.778Z,0.60
2023-10-12T07:47:38.403Z,0.73
2023-10-12T07:50:11.129Z,1.30
2023-10-12T07:52:48.156Z,0.88
2023-10-12T07:55:18.316Z,0.80
2023-10-12T07:57:46.952Z,1.00
2023-10-12T08:00:35.512Z,0.80
2023-10-12T08:03:19.038Z,1.33
2023-10-12T08:05:57.912Z,1.33
2023-10-12T08:08:36.105Z,1.00
2023-10-12T08:11:11.752Z,1.67
2023-10-12T08:13:49.485Z,1.60
2023-10-12T08:16:27.286Z,1.40
2023-10-12T08:19:26.136Z,1.10
2023-10-12T08:22:01.091Z,1.40
2023-10-12T08:24:31.807Z,1.50
2023-10-12T08:27:02.118Z,1.10
2023-10-12T08:30:12.507Z,1.90
2023-10-12T08:32:44.279Z,1.38
2023-10-12T08:35:29.814Z,1.42
2023-10-12T08:38:12.812Z,1.67
2023-10-12T08:40:59.504Z,1.60
2023-10-12T08:43:47.068Z,1.30
2023-10-12T08:46:39.012Z,1.38
2023-10-12T08:49:24.589Z,1.40
2023-10-12T08:52:06.876Z,1.40
2023-10-12T08:54:39.125Z,1.48
2023-10-12T08:57:19.127Z,1.48
2023-10-12T08:59:59.690Z,1.30
2023-10-12T09:02:28.115Z,1.42
2023-10-12T09:04:58.455Z,1.42
2023-10-12T09:07:38.309Z,1.20
2023-10-12T09:10:27.299Z,1.10
2023-10-12T09:12:55.280Z,0.98
2023-10-12T09:15:30.610Z,1.10
2023-10-12T09:17:58.702Z,1.20
2023-10-12T09:20:32.034Z,1.20
2023-10-12T09:23:11.518Z,1.10
2023-10-12T09:26:03.812Z,1.20
2023-10-12T09:28:43.540Z,1.27
2023-10-12T09:31:15.316Z,1.23
2023-10-12T09:33:46.605Z,1.20
2023-10-12T09:36:15.960Z,1.10
2023-10-12T09:38:43.947Z,0.90
2023-10-12T09:41:16.393Z,1.00
2023-10-12T09:43:46.429Z,1.13
2023-10-12T09:46:19.915Z,1.20
2023-10-12T09:48:49.161Z,1.30
2023-10-12T09:51:19.124Z,1.20
2023-10-12T09:53:58.554Z,1.10
2023-10-12T09:56:34.770Z,1.30
2023-10-12T09:59:09.566Z,1.13
2023-10-12T10:02:02.717Z,0.95
2023-10-12T10:04:30.538Z,1.30
2023-10-12T10:07:16.748Z,1.10
2023-10-12T10:09:47.554Z,1.25
2023-10-12T10:12:18.572Z,1.65
2023-10-12T10:14:48.573Z,2.22
2023-10-12T10:17:25.128Z,22.63
2023-10-12T10:20:20.412Z,3.30
2023-10-12T10:22:57.555Z,1.67
2023-10-12T10:25:35.101Z,2.33
2023-10-12T10:28:10.625Z,4.05
2023-10-12T10:30:42.698Z,2.10
2023-10-12T10:33:15.156Z,1.30
2023-10-12T10:36:01.388Z,1.27
2023-10-12T10:38:33.471Z,1.90
2023-10-12T10:41:08.541Z,1.25
2023-10-12T10:43:39.713Z,1.92
2023-10-12T10:46:12.329Z,1.55
2023-10-12T10:51:19.301Z,1.80
2023-10-12T10:53:56.203Z,1.50
2023-10-12T10:56:35.327Z,1.98
2023-10-12T10:59:06.430Z,1.77
2023-10-12T11:01:34.734Z,1.90
2023-10-12T11:04:09.126Z,1.90
2023-10-12T11:06:38.300Z,1.60
2023-10-12T11:09:07.457Z,2.60
2023-10-12T11:11:38.527Z,2.50
2023-10-12T11:14:10.029Z,2.60
2023-10-12T11:16:38.529Z,2.22
2023-10-12T11:19:10.618Z,3.08
2023-10-12T11:21:44.616Z,2.83
2023-10-12T11:24:12.646Z,3.17
2023-10-12T11:26:52.913Z,3.53
2023-10-12T11:29:23.676Z,3.45
2023-10-12T11:32:10.388Z,3.38
2023-10-12T11:34:45.685Z,3.45
2023-10-12T11:37:14.977Z,3.92
2023-10-12T11:39:44.390Z,4.63
2023-10-12T11:42:13.992Z,3.97
2023-10-12T11:44:44.792Z,3.83
2023-10-12T11:47:14.437Z,3.92
2023-10-12T11:49:57.032Z,4.97
2023-10-12T11:52:31.882Z,4.70
2023-10-12T11:55:07.587Z,4.18
2023-10-12T11:57:37.630Z,4.60
2023-10-12T12:00:22.423Z,4.63
2023-10-12T12:02:54.222Z,4.60
2023-10-12T12:05:24.105Z,5.20
2023-10-12T12:07:53.088Z,5.32
2023-10-12T12:10:27.433Z,5.32
2023-10-12T12:12:59.064Z,4.90
2023-10-12T12:15:28.559Z,6.30
2023-10-12T12:17:56.636Z,6.00
2023-10-12T12:20:26.403Z,7.07
2023-10-12T12:22:58.952Z,7.25
2023-10-12T12:25:33.330Z,7.82
2023-10-12T12:28:03.388Z,8.43
2023-10-12T12:30:57.808Z,9.27
2023-10-12T12:33:24.659Z,9.18
2023-10-12T12:36:00.834Z,11.10
2023-10-12T12:38:44.936Z,12.18
2023-10-12T12:41:20.696Z,12.02
2023-10-12T12:43:49.325Z,10.85
2023-10-12T12:46:20.276Z,10.07
2023-10-12T12:48:51.626Z,10.10
2023-10-12T12:51:20.555Z,10.23
2023-10-12T12:53:51.228Z,12.23
2023-10-12T12:56:20.805Z,10.60
2023-10-12T12:58:50.283Z,8.18
2023-10-12T13:01:24.730Z,6.32
2023-10-12T13:03:56.755Z,6.65
2023-10-12T13:06:25.587Z,4.10
2023-10-12T13:08:53.772Z,3.40
2023-10-12T13:11:22.109Z,3.80
2023-10-12T13:13:50.674Z,3.85
2023-10-12T13:16:20.257Z,4.97
2023-10-12T13:18:49.139Z,3.95
2023-10-12T13:21:18.016Z,4.38
2023-10-12T13:23:47.363Z,4.55
2023-10-12T13:26:20.732Z,5.50
2023-10-12T13:28:48.931Z,6.53
2023-10-12T13:31:17.443Z,6.25
2023-10-12T13:33:48.879Z,6.50
2023-10-12T13:36:17.235Z,5.43
2023-10-12T13:38:46.514Z,5.50
2023-10-12T13:41:16.537Z,5.97
2023-10-12T13:43:49.397Z,5.25
2023-10-12T13:46:18.057Z,5.18
2023-10-12T13:48:50.454Z,4.93
2023-10-12T13:51:21.597Z,4.97
2023-10-12T13:53:52.079Z,5.85
2023-10-12T13:56:24.853Z,7.78
2023-10-12T13:58:59.191Z,7.93
2023-10-12T14:01:28.175Z,7.82
2023-10-12T14:03:58.752Z,8.07
2023-10-12T14:06:31.378Z,8.00
2023-10-12T14:09:00.319Z,8.20
2023-10-12T14:11:28.290Z,8.20
2023-10-12T14:13:56.245Z,7.82
2023-10-12T14:16:24.285Z,7.70
2023-10-12T14:18:52.413Z,6.40
2023-10-12T14:21:21.702Z,7.43
2023-10-12T14:23:51.833Z,6.85
2023-10-12T14:26:20.372Z,7.80
2023-10-12T14:28:52.037Z,7.25
2023-10-12T14:31:23.022Z,6.93
2023-10-12T14:33:53.312Z,7.68
2023-10-12T14:36:25.008Z,6.60
2023-10-12T14:38:55.920Z,7.57
2023-10-12T14:41:26.096Z,7.00
2023-10-12T14:43:54.701Z,7.25
2023-10-12T14:46:22.992Z,7.15
2023-10-12T14:48:53.058Z,6.22
2023-10-12T14:51:25.952Z,6.50
2023-10-12T14:53:53.886Z,6.35
2023-10-12T14:56:25.346Z,7.07
2023-10-12T14:58:53.521Z,6.45
2023-10-12T15:01:23.459Z,7.07
2023-10-12T15:03:51.712Z,6.57
2023-10-12T15:06:21.545Z,7.20
2023-10-12T15:08:54.176Z,6.93
2023-10-12T15:11:22.437Z,6.00
2023-10-12T15:13:50.876Z,6.97
2023-10-12T15:16:19.799Z,6.82
2023-10-12T15:18:48.535Z,6.65
2023-10-12T15:21:30.141Z,6.80
2023-10-12T15:24:03.236Z,6.95
2023-10-12T15:26:31.331Z,6.63
2023-10-12T15:28:59.280Z,6.90
2023-10-12T15:31:29.001Z,8.15
2023-10-12T15:33:57.897Z,8.23
2023-10-12T15:36:26.451Z,7.18
2023-10-12T15:38:54.678Z,7.53
2023-10-12T15:41:24.040Z,8.55
2023-10-12T15:43:53.049Z,8.00
2023-10-12T15:46:21.653Z,7.60
2023-10-12T15:48:49.795Z,6.93
2023-10-12T15:51:20.867Z,8.45
2023-10-12T15:53:50.043Z,8.38
2023-10-12T15:56:18.683Z,8.07
2023-10-12T15:58:50.337Z,8.02
2023-10-12T16:01:19.555Z,9.13
2023-10-12T16:03:47.989Z,8.65
2023-10-12T16:06:16.374Z,8.90
2023-10-12T16:08:45.570Z,8.02
2023-10-12T16:11:17.745Z,8.93
2023-10-12T16:13:46.763Z,8.57
2023-10-12T16:16:17.850Z,8.73
2023-10-12T16:18:46.165Z,8.88
2023-10-12T16:21:17.502Z,8.48
2023-10-12T16:23:45.973Z,7.07
2023-10-12T16:26:14.374Z,7.93
2023-10-12T16:28:43.112Z,7.43
2023-10-12T16:31:12.157Z,7.50
2023-10-12T16:33:42.718Z,7.63
2023-10-12T16:36:13.125Z,7.43
2023-10-12T16:38:42.016Z,6.97
2023-10-12T16:41:10.698Z,7.38
2023-10-12T16:43:39.657Z,7.13
2023-10-12T16:46:08.436Z,7.50
2023-10-12T16:48:36.810Z,7.10
2023-10-12T16:51:08.686Z,8.32
2023-10-12T16:53:37.467Z,7.28
2023-10-12T16:56:11.612Z,8.20
2023-10-12T16:58:41.510Z,7.18
2023-10-12T17:01:14.974Z,7.82
2023-10-12T17:03:43.158Z,8.80
2023-10-12T17:06:12.546Z,7.60
2023-10-12T17:08:42.410Z,6.95
2023-10-12T17:11:10.833Z,7.05
2023-10-12T17:13:38.908Z,7.00
2023-10-12T17:16:07.325Z,7.03
2023-10-12T17:18:36.413Z,7.65
2023-10-12T17:21:04.774Z,8.10
2023-10-12T17:23:34.060Z,7.32
2023-10-12T17:26:02.147Z,7.07
2023-10-12T17:28:34.754Z,7.03
2023-10-12T17:31:08.190Z,8.85
2023-10-12T17:33:36.713Z,8.25
2023-10-12T17:36:12.400Z,7.10
2023-10-12T17:38:43.327Z,7.18
2023-10-12T17:41:11.866Z,7.70
2023-10-12T17:43:41.542Z,6.80
2023-10-12T17:46:11.310Z,6.88
2023-10-12T17:48:40.789Z,7.88
2023-10-12T17:51:17.422Z,6.60
2023-10-12T17:53:49.061Z,7.38
2023-10-12T17:56:18.600Z,6.90
2023-10-12T17:58:48.417Z,6.47
2023-10-12T18:01:17.060Z,6.97
2023-10-12T18:03:45.341Z,6.72
2023-10-12T18:06:14.007Z,7.05
2023-10-12T18:08:44.337Z,7.07
2023-10-12T18:11:15.676Z,7.15
2023-10-12T18:13:45.028Z,6.20
2023-10-12T18:16:14.901Z,5.80
2023-10-12T18:18:43.211Z,6.93
2023-10-12T18:21:11.598Z,6.85
2023-10-12T18:23:41.020Z,6.63
2023-10-12T18:26:09.594Z,6.88
2023-10-12T18:28:39.084Z,7.18
2023-10-12T18:31:11.001Z,7.10
2023-10-12T18:33:40.091Z,6.25
2023-10-12T18:36:09.836Z,7.10
2023-10-12T18:38:38.626Z,5.35
2023-10-12T18:41:07.056Z,5.88
2023-10-12T18:43:35.242Z,5.00
2023-10-12T18:46:04.902Z,5.93
2023-10-12T18:48:33.504Z,5.18
2023-10-12T18:51:05.050Z,5.05
2023-10-12T18:53:33.800Z,5.43
2023-10-12T18:56:03.499Z,4.32
2023-10-12T18:58:35.650Z,5.20
2023-10-12T19:01:06.633Z,5.13
2023-10-12T19:03:35.074Z,4.15
2023-10-12T19:06:04.426Z,4.57
2023-10-12T19:08:32.818Z,4.10
2023-10-12T19:11:03.783Z,4.28
2023-10-12T19:13:31.987Z,4.28
2023-10-12T19:15:59.986Z,4.50
2023-10-12T19:18:31.291Z,4.05
2023-10-12T19:21:00.422Z,4.18
2023-10-12T19:23:28.491Z,3.55
2023-10-12T19:25:57.592Z,3.40
2023-10-12T19:28:26.245Z,4.05
2023-10-12T19:30:55.723Z,2.90
2023-10-12T19:33:24.021Z,3.35
2023-10-12T19:35:53.668Z,3.38
2023-10-12T19:38:22.275Z,3.55
2023-10-12T19:40:51.726Z,3.22
2023-10-12T19:43:19.865Z,3.70
2023-10-12T19:45:48.189Z,2.88
2023-10-12T19:48:17.493Z,3.55
2023-10-12T19:50:45.395Z,3.17
2023-10-12T19:53:15.482Z,3.40
2023-10-12T19:55:47.303Z,3.85
2023-10-12T19:58:16.078Z,3.47
2023-10-12T20:00:47.476Z,3.45
2023-10-12T20:03:23.325Z,3.50
2023-10-12T20:05:52.828Z,3.28
2023-10-12T20:08:22.063Z,3.92
2023-10-12T20:10:51.548Z,3.25
2023-10-12T20:13:21.543Z,3.08
2023-10-12T20:15:50.678Z,3.33
2023-10-12T20:18:20.736Z,3.45
2023-10-12T20:20:49.226Z,3.55
2023-10-12T20:23:17.531Z,3.17
2023-10-12T20:25:48.729Z,3.22
2023-10-12T20:28:18.321Z,3.72
2023-10-12T20:30:47.786Z,3.67
2023-10-12T20:33:19.648Z,3.83
2023-10-12T20:35:48.782Z,3.85
2023-10-12T20:38:21.701Z,3.40
2023-10-12T20:40:52.609Z,4.30
2023-10-12T20:43:23.894Z,3.28
2023-10-12T20:45:58.527Z,3.47
2023-10-12T20:48:28.320Z,3.78
2023-10-12T20:50:57.597Z,3.25
2023-10-12T20:53:26.125Z,3.05
2023-10-12T20:55:56.006Z,3.53
2023-10-12T20:58:31.885Z,3.03
2023-10-12T21:01:01.356Z,2.72
2023-10-12T21:03:38.591Z,2.25
2023-10-12T21:06:16.562Z,3.10
2023-10-12T21:08:47.687Z,2.53
2023-10-12T21:11:23.022Z,2.90
2023-10-12T21:13:51.200Z,2.85
2023-10-12T21:16:21.805Z,2.50
2023-10-12T21:18:52.331Z,2.50
2023-10-12T21:21:28.675Z,2.40
2023-10-12T21:24:07.487Z,3.03
2023-10-12T21:26:38.058Z,2.50
2023-10-12T21:29:09.292Z,2.22
2023-10-12T21:31:41.310Z,2.97
2023-10-12T21:34:11.966Z,2.30
2023-10-12T21:36:43.350Z,2.28
2023-10-12T21:39:16.985Z,2.05
2023-10-12T21:41:46.285Z,2.50
2023-10-12T21:44:14.841Z,3.75
2023-10-12T21:46:45.870Z,2.67
2023-10-12T21:49:13.981Z,2.92
2023-10-12T21:51:44.622Z,3.05
2023-10-12T21:54:16.028Z,3.33
2023-10-12T21:56:45.057Z,2.58
2023-10-12T21:59:14.599Z,3.05
2023-10-12T22:02:04.019Z,3.50
2023-10-12T22:04:37.989Z,3.50
2023-10-12T22:07:07.977Z,3.38
2023-10-12T22:09:44.420Z,3.33
2023-10-12T22:12:14.737Z,3.88
2023-10-12T22:15:01.186Z,3.05
2023-10-12T22:17:30.270Z,3.20
2023-10-12T22:19:59.108Z,3.55
2023-10-12T22:22:28.773Z,3.47
2023-10-12T22:24:57.512Z,3.47
2023-10-12T22:27:28.305Z,3.75
2023-10-12T22:29:58.858Z,3.97
2023-10-12T22:32:26.852Z,3.58
2023-10-12T22:34:54.789Z,3.13
2023-10-12T22:37:23.132Z,3.38
2023-10-12T22:39:52.188Z,2.85
2023-10-12T22:42:20.260Z,3.47
2023-10-12T22:44:48.424Z,3.70
2023-10-12T22:47:19.317Z,3.95
2023-10-12T22:49:48.400Z,3.13
2023-10-12T22:52:16.598Z,3.30
2023-10-12T22:54:44.552Z,4.40
2023-10-12T22:57:12.584Z,4.65
2023-10-12T22:59:40.793Z,3.92
2023-10-12T23:02:08.973Z,5.65
2023-10-12T23:04:38.767Z,4.93
2023-10-12T23:07:07.597Z,5.25
2023-10-12T23:09:35.674Z,5.30
2023-10-12T23:12:12.544Z,6.03
2023-10-12T23:14:45.784Z,5.80
2023-10-12T23:17:14.001Z,5.15
2023-10-12T23:19:45.784Z,6.03
2023-10-12T23:22:31.819Z,5.65
2023-10-12T23:25:02.157Z,5.75
2023-10-12T23:27:33.509Z,6.13
2023-10-12T23:30:12.065Z,6.18
2023-10-12T23:32:40.827Z,5.75
2023-10-12T23:35:19.285Z,4.90
2023-10-12T23:38:08.568Z,5.57
2023-10-12T23:40:48.131Z,4.90
2023-10-12T23:43:18.643Z,5.88
2023-10-12T23:45:56.212Z,5.43
2023-10-12T23:48:25.795Z,5.38
2023-10-12T23:51:04.214Z,5.55
2023-10-12T23:53:38.126Z,4.82
2023-10-12T23:56:10.766Z,5.28
2023-10-12T23:58:38.797Z,5.50
